sensor_id;sensor_type;location;lat;lon;timestamp;P1;durP1;ratioP1;P2;durP2;ratioP2
11582;SDS011;34299;50.820;4.548;2022-12-18T00:02:08;21.30;;;11.75;;
11582;SDS011;34299;50.820;4.548;2022-12-18T00:04:35;21.13;;;11.35;;
11582;SDS011;34299;50.820;4.548;2022-12-18T00:07:02;24.73;;;12.40;;
11582;SDS011;34299;50.820;4.548;2022-12-18T00:09:30;21.70;;;11.52;;
11582;SDS011;34299;50.820;4.548;2022-12-18T00:11:57;19.15;;;11.30;;
11582;SDS011;34299;50.820;4.548;2022-12-18T00:14:25;21.17;;;11.45;;
11582;SDS011;34299;50.820;4.548;2022-12-18T00:16:53;25.30;;;11.20;;
11582;SDS011;34299;50.820;4.548;2022-12-18T00:19:20;24.42;;;12.10;;
11582;SDS011;34299;50.820;4.548;2022-12-18T00:21:47;21.00;;;11.80;;
11582;SDS011;34299;50.820;4.548;2022-12-18T00:24:14;23.63;;;12.70;;
11582;SDS011;34299;50.820;4.548;2022-12-18T00:26:41;20.65;;;11.85;;
11582;SDS011;34299;50.820;4.548;2022-12-18T00:29:10;19.13;;;9.82;;
11582;SDS011;34299;50.820;4.548;2022-12-18T00:31:40;19.48;;;10.65;;
11582;SDS011;34299;50.820;4.548;2022-12-18T00:34:08;18.75;;;10.05;;
11582;SDS011;34299;50.820;4.548;2022-12-18T00:36:36;19.80;;;11.02;;
11582;SDS011;34299;50.820;4.548;2022-12-18T00:39:03;22.50;;;11.05;;
11582;SDS011;34299;50.820;4.548;2022-12-18T00:41:31;23.10;;;11.20;;
11582;SDS011;34299;50.820;4.548;2022-12-18T00:44:16;19.83;;;10.68;;
11582;SDS011;34299;50.820;4.548;2022-12-18T00:46:46;19.85;;;10.65;;
11582;SDS011;34299;50.820;4.548;2022-12-18T00:49:14;22.88;;;11.20;;
11582;SDS011;34299;50.820;4.548;2022-12-18T00:51:41;19.35;;;10.05;;
11582;SDS011;34299;50.820;4.548;2022-12-18T00:54:08;18.20;;;10.13;;
11582;SDS011;34299;50.820;4.548;2022-12-18T00:56:36;19.58;;;10.98;;
11582;SDS011;34299;50.820;4.548;2022-12-18T00:59:03;18.88;;;10.07;;
11582;SDS011;34299;50.820;4.548;2022-12-18T01:01:30;19.88;;;11.57;;
11582;SDS011;34299;50.820;4.548;2022-12-18T01:04:00;18.67;;;11.60;;
11582;SDS011;34299;50.820;4.548;2022-12-18T01:06:28;22.35;;;11.90;;
11582;SDS011;34299;50.820;4.548;2022-12-18T01:08:56;20.48;;;11.70;;
11582;SDS011;34299;50.820;4.548;2022-12-18T01:11:23;21.23;;;11.35;;
11582;SDS011;34299;50.820;4.548;2022-12-18T01:13:51;19.25;;;10.27;;
11582;SDS011;34299;50.820;4.548;2022-12-18T01:16:18;17.42;;;10.63;;
11582;SDS011;34299;50.820;4.548;2022-12-18T01:18:45;20.05;;;10.80;;
11582;SDS011;34299;50.820;4.548;2022-12-18T01:21:14;23.15;;;10.70;;
11582;SDS011;34299;50.820;4.548;2022-12-18T01:23:42;21.98;;;10.98;;
11582;SDS011;34299;50.820;4.548;2022-12-18T01:26:10;21.42;;;11.40;;
11582;SDS011;34299;50.820;4.548;2022-12-18T01:28:38;19.23;;;10.40;;
11582;SDS011;34299;50.820;4.548;2022-12-18T01:31:12;21.30;;;11.07;;
11582;SDS011;34299;50.820;4.548;2022-12-18T01:33:39;19.25;;;10.63;;
11582;SDS011;34299;50.820;4.548;2022-12-18T01:36:07;20.98;;;10.95;;
11582;SDS011;34299;50.820;4.548;2022-12-18T01:38:35;22.30;;;11.48;;
11582;SDS011;34299;50.820;4.548;2022-12-18T01:41:03;23.45;;;10.43;;
11582;SDS011;34299;50.820;4.548;2022-12-18T01:43:43;17.23;;;10.50;;
11582;SDS011;34299;50.820;4.548;2022-12-18T01:46:11;21.10;;;10.43;;
11582;SDS011;34299;50.820;4.548;2022-12-18T01:48:38;20.05;;;10.55;;
11582;SDS011;34299;50.820;4.548;2022-12-18T01:51:06;21.08;;;10.55;;
11582;SDS011;34299;50.820;4.548;2022-12-18T01:53:36;20.52;;;11.00;;
11582;SDS011;34299;50.820;4.548;2022-12-18T01:56:04;22.30;;;11.57;;
11582;SDS011;34299;50.820;4.548;2022-12-18T01:58:32;22.88;;;10.68;;
11582;SDS011;34299;50.820;4.548;2022-12-18T02:01:02;24.02;;;11.35;;
11582;SDS011;34299;50.820;4.548;2022-12-18T02:03:30;19.83;;;11.48;;
11582;SDS011;34299;50.820;4.548;2022-12-18T02:05:59;19.33;;;10.48;;
11582;SDS011;34299;50.820;4.548;2022-12-18T02:08:30;19.02;;;10.55;;
11582;SDS011;34299;50.820;4.548;2022-12-18T02:11:04;17.10;;;10.65;;
11582;SDS011;34299;50.820;4.548;2022-12-18T02:13:36;16.92;;;10.02;;
11582;SDS011;34299;50.820;4.548;2022-12-18T02:16:06;21.85;;;11.13;;
11582;SDS011;34299;50.820;4.548;2022-12-18T02:18:36;25.92;;;12.82;;
11582;SDS011;34299;50.820;4.548;2022-12-18T02:21:08;18.25;;;11.00;;
11582;SDS011;34299;50.820;4.548;2022-12-18T02:23:42;18.77;;;10.82;;
11582;SDS011;34299;50.820;4.548;2022-12-18T02:26:15;20.08;;;12.05;;
11582;SDS011;34299;50.820;4.548;2022-12-18T02:28:46;17.25;;;10.07;;
11582;SDS011;34299;50.820;4.548;2022-12-18T02:31:15;21.00;;;10.35;;
11582;SDS011;34299;50.820;4.548;2022-12-18T02:33:44;17.42;;;9.65;;
11582;SDS011;34299;50.820;4.548;2022-12-18T02:36:12;17.60;;;10.50;;
11582;SDS011;34299;50.820;4.548;2022-12-18T02:38:40;21.88;;;11.25;;
11582;SDS011;34299;50.820;4.548;2022-12-18T02:41:08;18.80;;;10.35;;
11582;SDS011;34299;50.820;4.548;2022-12-18T02:43:37;22.08;;;10.60;;
11582;SDS011;34299;50.820;4.548;2022-12-18T02:48:48;18.42;;;9.80;;
11582;SDS011;34299;50.820;4.548;2022-12-18T02:51:17;17.33;;;11.55;;
11582;SDS011;34299;50.820;4.548;2022-12-18T02:53:48;17.67;;;10.00;;
11582;SDS011;34299;50.820;4.548;2022-12-18T02:56:18;23.73;;;10.95;;
11582;SDS011;34299;50.820;4.548;2022-12-18T02:58:50;20.98;;;11.00;;
11582;SDS011;34299;50.820;4.548;2022-12-18T03:01:24;18.88;;;10.57;;
11582;SDS011;34299;50.820;4.548;2022-12-18T03:03:55;17.98;;;11.45;;
11582;SDS011;34299;50.820;4.548;2022-12-18T03:06:23;19.92;;;11.07;;
11582;SDS011;34299;50.820;4.548;2022-12-18T03:08:52;17.65;;;10.63;;
11582;SDS011;34299;50.820;4.548;2022-12-18T03:11:21;17.65;;;10.77;;
11582;SDS011;34299;50.820;4.548;2022-12-18T03:14:09;16.75;;;9.68;;
11582;SDS011;34299;50.820;4.548;2022-12-18T03:16:39;21.33;;;10.85;;
11582;SDS011;34299;50.820;4.548;2022-12-18T03:19:08;17.95;;;11.05;;
11582;SDS011;34299;50.820;4.548;2022-12-18T03:21:38;21.02;;;10.23;;
11582;SDS011;34299;50.820;4.548;2022-12-18T03:24:06;18.83;;;9.55;;
11582;SDS011;34299;50.820;4.548;2022-12-18T03:26:34;15.73;;;9.68;;
11582;SDS011;34299;50.820;4.548;2022-12-18T03:29:02;14.38;;;9.07;;
11582;SDS011;34299;50.820;4.548;2022-12-18T03:31:32;15.57;;;10.02;;
11582;SDS011;34299;50.820;4.548;2022-12-18T03:34:02;16.40;;;9.27;;
11582;SDS011;34299;50.820;4.548;2022-12-18T03:36:30;15.60;;;9.23;;
11582;SDS011;34299;50.820;4.548;2022-12-18T03:38:58;19.17;;;9.23;;
11582;SDS011;34299;50.820;4.548;2022-12-18T03:41:27;19.05;;;10.57;;
11582;SDS011;34299;50.820;4.548;2022-12-18T03:43:57;19.15;;;10.15;;
11582;SDS011;34299;50.820;4.548;2022-12-18T03:46:28;14.73;;;8.60;;
11582;SDS011;34299;50.820;4.548;2022-12-18T03:49:01;14.32;;;8.18;;
11582;SDS011;34299;50.820;4.548;2022-12-18T03:51:31;15.65;;;8.43;;
11582;SDS011;34299;50.820;4.548;2022-12-18T03:54:01;14.25;;;8.43;;
11582;SDS011;34299;50.820;4.548;2022-12-18T03:56:29;16.98;;;9.25;;
11582;SDS011;34299;50.820;4.548;2022-12-18T03:58:57;14.25;;;8.60;;
11582;SDS011;34299;50.820;4.548;2022-12-18T04:01:28;18.15;;;8.77;;
11582;SDS011;34299;50.820;4.548;2022-12-18T04:03:56;14.48;;;8.38;;
11582;SDS011;34299;50.820;4.548;2022-12-18T04:06:25;15.05;;;8.40;;
11582;SDS011;34299;50.820;4.548;2022-12-18T04:08:53;13.30;;;8.70;;
11582;SDS011;34299;50.820;4.548;2022-12-18T04:11:20;16.95;;;9.85;;
11582;SDS011;34299;50.820;4.548;2022-12-18T04:13:47;17.05;;;9.48;;
11582;SDS011;34299;50.820;4.548;2022-12-18T04:16:14;14.82;;;7.68;;
11582;SDS011;34299;50.820;4.548;2022-12-18T04:18:43;15.18;;;8.93;;
11582;SDS011;34299;50.820;4.548;2022-12-18T04:21:10;16.30;;;8.70;;
11582;SDS011;34299;50.820;4.548;2022-12-18T04:23:39;15.32;;;8.95;;
11582;SDS011;34299;50.820;4.548;2022-12-18T04:26:06;19.52;;;9.18;;
11582;SDS011;34299;50.820;4.548;2022-12-18T04:28:33;21.38;;;10.52;;
11582;SDS011;34299;50.820;4.548;2022-12-18T04:31:01;19.77;;;8.80;;
11582;SDS011;34299;50.820;4.548;2022-12-18T04:33:28;14.13;;;8.68;;
11582;SDS011;34299;50.820;4.548;2022-12-18T04:35:55;15.02;;;9.35;;
11582;SDS011;34299;50.820;4.548;2022-12-18T04:38:23;13.45;;;8.05;;
11582;SDS011;34299;50.820;4.548;2022-12-18T04:40:51;11.88;;;6.90;;
11582;SDS011;34299;50.820;4.548;2022-12-18T04:43:18;15.57;;;7.70;;
11582;SDS011;34299;50.820;4.548;2022-12-18T04:45:45;20.65;;;8.98;;
11582;SDS011;34299;50.820;4.548;2022-12-18T04:48:13;14.90;;;8.98;;
11582;SDS011;34299;50.820;4.548;2022-12-18T04:50:40;19.65;;;8.85;;
11582;SDS011;34299;50.820;4.548;2022-12-18T04:53:07;14.27;;;8.18;;
11582;SDS011;34299;50.820;4.548;2022-12-18T04:55:34;14.77;;;7.85;;
11582;SDS011;34299;50.820;4.548;2022-12-18T04:58:03;15.18;;;8.10;;
11582;SDS011;34299;50.820;4.548;2022-12-18T05:00:30;17.55;;;8.80;;
11582;SDS011;34299;50.820;4.548;2022-12-18T05:02:57;15.30;;;8.25;;
11582;SDS011;34299;50.820;4.548;2022-12-18T05:05:24;14.57;;;8.27;;
11582;SDS011;34299;50.820;4.548;2022-12-18T05:07:52;15.82;;;7.50;;
11582;SDS011;34299;50.820;4.548;2022-12-18T05:10:19;17.80;;;8.75;;
11582;SDS011;34299;50.820;4.548;2022-12-18T05:12:46;14.75;;;8.52;;
11582;SDS011;34299;50.820;4.548;2022-12-18T05:15:28;15.88;;;7.40;;
11582;SDS011;34299;50.820;4.548;2022-12-18T05:17:55;16.02;;;8.02;;
11582;SDS011;34299;50.820;4.548;2022-12-18T05:20:23;10.05;;;6.30;;
11582;SDS011;34299;50.820;4.548;2022-12-18T05:22:50;15.25;;;8.90;;
11582;SDS011;34299;50.820;4.548;2022-12-18T05:25:17;14.02;;;8.20;;
11582;SDS011;34299;50.820;4.548;2022-12-18T05:27:44;12.10;;;6.90;;
11582;SDS011;34299;50.820;4.548;2022-12-18T05:30:12;12.80;;;8.32;;
11582;SDS011;34299;50.820;4.548;2022-12-18T05:32:41;12.90;;;7.70;;
11582;SDS011;34299;50.820;4.548;2022-12-18T05:35:08;13.88;;;8.25;;
11582;SDS011;34299;50.820;4.548;2022-12-18T05:37:36;13.15;;;7.63;;
11582;SDS011;34299;50.820;4.548;2022-12-18T05:40:03;13.73;;;7.45;;
11582;SDS011;34299;50.820;4.548;2022-12-18T05:42:31;16.50;;;8.75;;
11582;SDS011;34299;50.820;4.548;2022-12-18T05:44:58;14.82;;;8.15;;
11582;SDS011;34299;50.820;4.548;2022-12-18T05:47:26;12.93;;;8.60;;
11582;SDS011;34299;50.820;4.548;2022-12-18T05:49:55;13.43;;;7.22;;
11582;SDS011;34299;50.820;4.548;2022-12-18T05:52:22;13.52;;;7.75;;
11582;SDS011;34299;50.820;4.548;2022-12-18T05:54:49;16.13;;;9.25;;
11582;SDS011;34299;50.820;4.548;2022-12-18T05:57:16;12.40;;;7.82;;
11582;SDS011;34299;50.820;4.548;2022-12-18T05:59:44;9.07;;;6.50;;
11582;SDS011;34299;50.820;4.548;2022-12-18T06:02:11;15.23;;;7.25;;
11582;SDS011;34299;50.820;4.548;2022-12-18T06:04:38;10.90;;;6.90;;
11582;SDS011;34299;50.820;4.548;2022-12-18T06:07:07;13.98;;;7.90;;
11582;SDS011;34299;50.820;4.548;2022-12-18T06:09:34;11.52;;;7.72;;
11582;SDS011;34299;50.820;4.548;2022-12-18T06:12:01;12.40;;;7.35;;
11582;SDS011;34299;50.820;4.548;2022-12-18T06:14:28;12.88;;;7.82;;
11582;SDS011;34299;50.820;4.548;2022-12-18T06:16:55;13.15;;;7.63;;
11582;SDS011;34299;50.820;4.548;2022-12-18T06:19:23;14.55;;;7.70;;
11582;SDS011;34299;50.820;4.548;2022-12-18T06:21:50;15.00;;;8.02;;
11582;SDS011;34299;50.820;4.548;2022-12-18T06:24:18;15.52;;;7.00;;
11582;SDS011;34299;50.820;4.548;2022-12-18T06:26:46;13.60;;;7.22;;
11582;SDS011;34299;50.820;4.548;2022-12-18T06:29:13;13.02;;;7.32;;
11582;SDS011;34299;50.820;4.548;2022-12-18T06:31:40;14.38;;;8.02;;
11582;SDS011;34299;50.820;4.548;2022-12-18T06:34:07;18.17;;;7.82;;
11582;SDS011;34299;50.820;4.548;2022-12-18T06:36:34;10.77;;;6.47;;
11582;SDS011;34299;50.820;4.548;2022-12-18T06:39:02;12.10;;;7.57;;
11582;SDS011;34299;50.820;4.548;2022-12-18T06:41:30;16.83;;;7.57;;
11582;SDS011;34299;50.820;4.548;2022-12-18T06:43:58;11.52;;;7.70;;
11582;SDS011;34299;50.820;4.548;2022-12-18T06:46:25;12.55;;;7.13;;
11582;SDS011;34299;50.820;4.548;2022-12-18T06:48:52;11.73;;;6.72;;
11582;SDS011;34299;50.820;4.548;2022-12-18T06:51:19;13.95;;;7.15;;
11582;SDS011;34299;50.820;4.548;2022-12-18T06:53:47;12.57;;;7.15;;
11582;SDS011;34299;50.820;4.548;2022-12-18T06:56:14;11.15;;;6.85;;
11582;SDS011;34299;50.820;4.548;2022-12-18T06:58:43;12.25;;;7.43;;
11582;SDS011;34299;50.820;4.548;2022-12-18T07:01:11;13.48;;;7.50;;
11582;SDS011;34299;50.820;4.548;2022-12-18T07:03:38;10.80;;;7.78;;
11582;SDS011;34299;50.820;4.548;2022-12-18T07:06:06;11.45;;;6.93;;
11582;SDS011;34299;50.820;4.548;2022-12-18T07:08:33;11.52;;;7.47;;
11582;SDS011;34299;50.820;4.548;2022-12-18T07:11:02;14.65;;;7.88;;
11582;SDS011;34299;50.820;4.548;2022-12-18T07:13:30;10.82;;;7.32;;
11582;SDS011;34299;50.820;4.548;2022-12-18T07:16:04;11.90;;;7.15;;
11582;SDS011;34299;50.820;4.548;2022-12-18T07:18:31;12.45;;;6.68;;
11582;SDS011;34299;50.820;4.548;2022-12-18T07:21:02;10.15;;;7.10;;
11582;SDS011;34299;50.820;4.548;2022-12-18T07:23:29;12.70;;;7.22;;
11582;SDS011;34299;50.820;4.548;2022-12-18T07:25:59;11.10;;;6.72;;
11582;SDS011;34299;50.820;4.548;2022-12-18T07:28:27;9.43;;;6.43;;
11582;SDS011;34299;50.820;4.548;2022-12-18T07:30:54;10.05;;;7.47;;
11582;SDS011;34299;50.820;4.548;2022-12-18T07:33:22;11.57;;;6.55;;
11582;SDS011;34299;50.820;4.548;2022-12-18T07:35:50;10.70;;;6.40;;
11582;SDS011;34299;50.820;4.548;2022-12-18T07:38:17;11.98;;;7.55;;
11582;SDS011;34299;50.820;4.548;2022-12-18T07:40:44;10.75;;;7.20;;
11582;SDS011;34299;50.820;4.548;2022-12-18T07:43:11;15.10;;;6.95;;
11582;SDS011;34299;50.820;4.548;2022-12-18T07:45:38;15.70;;;7.13;;
11582;SDS011;34299;50.820;4.548;2022-12-18T07:48:06;13.85;;;6.10;;
11582;SDS011;34299;50.820;4.548;2022-12-18T07:50:34;10.70;;;6.13;;
11582;SDS011;34299;50.820;4.548;2022-12-18T07:53:01;10.48;;;5.95;;
11582;SDS011;34299;50.820;4.548;2022-12-18T07:55:29;11.95;;;5.60;;
11582;SDS011;34299;50.820;4.548;2022-12-18T07:58:00;10.50;;;6.40;;
11582;SDS011;34299;50.820;4.548;2022-12-18T08:00:28;10.85;;;5.72;;
11582;SDS011;34299;50.820;4.548;2022-12-18T08:02:55;8.32;;;5.10;;
11582;SDS011;34299;50.820;4.548;2022-12-18T08:05:23;9.48;;;5.55;;
11582;SDS011;34299;50.820;4.548;2022-12-18T08:07:51;9.07;;;4.78;;
11582;SDS011;34299;50.820;4.548;2022-12-18T08:10:19;10.18;;;5.85;;
11582;SDS011;34299;50.820;4.548;2022-12-18T08:12:48;11.15;;;6.20;;
11582;SDS011;34299;50.820;4.548;2022-12-18T08:15:15;8.30;;;5.93;;
11582;SDS011;34299;50.820;4.548;2022-12-18T08:17:42;12.02;;;6.57;;
11582;SDS011;34299;50.820;4.548;2022-12-18T08:20:10;10.50;;;6.38;;
11582;SDS011;34299;50.820;4.548;2022-12-18T08:22:39;12.15;;;6.18;;
11582;SDS011;34299;50.820;4.548;2022-12-18T08:25:08;9.23;;;5.55;;
11582;SDS011;34299;50.820;4.548;2022-12-18T08:27:35;10.55;;;6.45;;
11582;SDS011;34299;50.820;4.548;2022-12-18T08:30:03;9.20;;;6.15;;
11582;SDS011;34299;50.820;4.548;2022-12-18T08:32:30;14.23;;;6.43;;
11582;SDS011;34299;50.820;4.548;2022-12-18T08:34:58;11.65;;;6.97;;
11582;SDS011;34299;50.820;4.548;2022-12-18T08:37:26;8.48;;;5.60;;
11582;SDS011;34299;50.820;4.548;2022-12-18T08:39:53;9.85;;;6.10;;
11582;SDS011;34299;50.820;4.548;2022-12-18T08:42:21;11.77;;;5.93;;
11582;SDS011;34299;50.820;4.548;2022-12-18T08:45:07;10.10;;;6.25;;
11582;SDS011;34299;50.820;4.548;2022-12-18T08:47:34;10.85;;;6.05;;
11582;SDS011;34299;50.820;4.548;2022-12-18T08:50:01;7.80;;;5.97;;
11582;SDS011;34299;50.820;4.548;2022-12-18T08:52:28;11.15;;;5.72;;
11582;SDS011;34299;50.820;4.548;2022-12-18T08:54:58;8.60;;;5.32;;
11582;SDS011;34299;50.820;4.548;2022-12-18T08:57:26;8.15;;;5.47;;
11582;SDS011;34299;50.820;4.548;2022-12-18T08:59:53;8.02;;;5.65;;
11582;SDS011;34299;50.820;4.548;2022-12-18T09:02:20;8.35;;;5.63;;
11582;SDS011;34299;50.820;4.548;2022-12-18T09:04:48;8.63;;;5.25;;
11582;SDS011;34299;50.820;4.548;2022-12-18T09:07:15;8.18;;;5.30;;
11582;SDS011;34299;50.820;4.548;2022-12-18T09:09:42;10.95;;;5.70;;
11582;SDS011;34299;50.820;4.548;2022-12-18T09:12:09;8.27;;;5.13;;
11582;SDS011;34299;50.820;4.548;2022-12-18T09:14:38;9.63;;;5.80;;
11582;SDS011;34299;50.820;4.548;2022-12-18T09:17:05;8.52;;;6.03;;
11582;SDS011;34299;50.820;4.548;2022-12-18T09:19:32;12.45;;;6.47;;
11582;SDS011;34299;50.820;4.548;2022-12-18T09:22:00;9.77;;;5.70;;
11582;SDS011;34299;50.820;4.548;2022-12-18T09:24:27;7.68;;;5.35;;
11582;SDS011;34299;50.820;4.548;2022-12-18T09:26:54;9.90;;;5.38;;
11582;SDS011;34299;50.820;4.548;2022-12-18T09:29:21;10.95;;;4.95;;
11582;SDS011;34299;50.820;4.548;2022-12-18T09:31:50;10.15;;;4.95;;
11582;SDS011;34299;50.820;4.548;2022-12-18T09:34:17;8.50;;;4.80;;
11582;SDS011;34299;50.820;4.548;2022-12-18T09:36:46;10.93;;;5.70;;
11582;SDS011;34299;50.820;4.548;2022-12-18T09:39:13;7.13;;;4.47;;
11582;SDS011;34299;50.820;4.548;2022-12-18T09:41:44;8.25;;;4.90;;
11582;SDS011;34299;50.820;4.548;2022-12-18T09:44:22;7.13;;;4.45;;
11582;SDS011;34299;50.820;4.548;2022-12-18T09:46:53;8.45;;;4.88;;
11582;SDS011;34299;50.820;4.548;2022-12-18T09:49:22;6.75;;;4.28;;
11582;SDS011;34299;50.820;4.548;2022-12-18T09:51:50;8.13;;;4.95;;
11582;SDS011;34299;50.820;4.548;2022-12-18T09:54:20;9.85;;;5.25;;
11582;SDS011;34299;50.820;4.548;2022-12-18T09:56:48;8.68;;;5.40;;
11582;SDS011;34299;50.820;4.548;2022-12-18T09:59:18;8.73;;;5.40;;
11582;SDS011;34299;50.820;4.548;2022-12-18T10:01:46;11.52;;;7.22;;
11582;SDS011;34299;50.820;4.548;2022-12-18T10:04:14;8.40;;;5.47;;
11582;SDS011;34299;50.820;4.548;2022-12-18T10:06:43;10.18;;;6.07;;
11582;SDS011;34299;50.820;4.548;2022-12-18T10:09:14;11.63;;;5.80;;
11582;SDS011;34299;50.820;4.548;2022-12-18T10:11:46;9.65;;;6.22;;
11582;SDS011;34299;50.820;4.548;2022-12-18T10:14:17;10.75;;;5.85;;
11582;SDS011;34299;50.820;4.548;2022-12-18T10:16:49;12.68;;;6.20;;
11582;SDS011;34299;50.820;4.548;2022-12-18T10:19:21;9.65;;;5.55;;
11582;SDS011;34299;50.820;4.548;2022-12-18T10:21:51;12.38;;;6.18;;
11582;SDS011;34299;50.820;4.548;2022-12-18T10:24:23;9.65;;;5.55;;
11582;SDS011;34299;50.820;4.548;2022-12-18T10:26:51;9.88;;;5.78;;
11582;SDS011;34299;50.820;4.548;2022-12-18T10:29:19;9.88;;;6.05;;
11582;SDS011;34299;50.820;4.548;2022-12-18T10:31:46;9.15;;;5.55;;
11582;SDS011;34299;50.820;4.548;2022-12-18T10:34:13;11.55;;;6.63;;
11582;SDS011;34299;50.820;4.548;2022-12-18T10:36:42;8.90;;;5.32;;
11582;SDS011;34299;50.820;4.548;2022-12-18T10:39:15;12.27;;;6.75;;
11582;SDS011;34299;50.820;4.548;2022-12-18T10:41:43;10.60;;;6.43;;
11582;SDS011;34299;50.820;4.548;2022-12-18T10:44:11;10.60;;;6.20;;
11582;SDS011;34299;50.820;4.548;2022-12-18T10:46:39;10.23;;;6.72;;
11582;SDS011;34299;50.820;4.548;2022-12-18T10:49:17;10.88;;;5.75;;
11582;SDS011;34299;50.820;4.548;2022-12-18T10:51:46;8.48;;;5.72;;
11582;SDS011;34299;50.820;4.548;2022-12-18T10:54:14;9.77;;;6.35;;
11582;SDS011;34299;50.820;4.548;2022-12-18T10:56:42;10.55;;;5.25;;
11582;SDS011;34299;50.820;4.548;2022-12-18T10:59:10;11.85;;;7.00;;
11582;SDS011;34299;50.820;4.548;2022-12-18T11:01:48;3.92;;;2.85;;
11582;SDS011;34299;50.820;4.548;2022-12-18T11:04:17;6.10;;;3.80;;
11582;SDS011;34299;50.820;4.548;2022-12-18T11:06:56;9.00;;;3.45;;
11582;SDS011;34299;50.820;4.548;2022-12-18T11:09:24;6.55;;;4.68;;
11582;SDS011;34299;50.820;4.548;2022-12-18T11:11:52;5.97;;;3.90;;
11582;SDS011;34299;50.820;4.548;2022-12-18T11:14:21;7.43;;;5.25;;
11582;SDS011;34299;50.820;4.548;2022-12-18T11:16:50;7.00;;;3.97;;
11582;SDS011;34299;50.820;4.548;2022-12-18T11:19:27;7.97;;;4.97;;
11582;SDS011;34299;50.820;4.548;2022-12-18T11:21:56;8.52;;;5.55;;
11582;SDS011;34299;50.820;4.548;2022-12-18T11:24:26;9.48;;;5.72;;
11582;SDS011;34299;50.820;4.548;2022-12-18T11:26:54;8.23;;;5.70;;
11582;SDS011;34299;50.820;4.548;2022-12-18T11:29:23;10.63;;;5.65;;
11582;SDS011;34299;50.820;4.548;2022-12-18T11:31:51;7.88;;;5.95;;
11582;SDS011;34299;50.820;4.548;2022-12-18T11:34:19;9.90;;;7.23;;
11582;SDS011;34299;50.820;4.548;2022-12-18T11:36:49;11.07;;;6.10;;
11582;SDS011;34299;50.820;4.548;2022-12-18T11:39:19;9.02;;;5.60;;
11582;SDS011;34299;50.820;4.548;2022-12-18T11:41:48;9.60;;;6.23;;
11582;SDS011;34299;50.820;4.548;2022-12-18T11:44:36;11.83;;;6.13;;
11582;SDS011;34299;50.820;4.548;2022-12-18T11:47:07;9.37;;;5.63;;
11582;SDS011;34299;50.820;4.548;2022-12-18T11:49:36;7.37;;;4.67;;
11582;SDS011;34299;50.820;4.548;2022-12-18T11:52:04;10.77;;;7.00;;
11582;SDS011;34299;50.820;4.548;2022-12-18T11:54:37;11.68;;;5.82;;
11582;SDS011;34299;50.820;4.548;2022-12-18T11:57:06;11.80;;;6.00;;
11582;SDS011;34299;50.820;4.548;2022-12-18T11:59:36;7.65;;;4.93;;
11582;SDS011;34299;50.820;4.548;2022-12-18T12:02:15;8.43;;;5.13;;
11582;SDS011;34299;50.820;4.548;2022-12-18T12:04:46;8.77;;;5.22;;
11582;SDS011;34299;50.820;4.548;2022-12-18T12:07:21;15.60;;;6.38;;
11582;SDS011;34299;50.820;4.548;2022-12-18T12:09:54;9.82;;;5.13;;
11582;SDS011;34299;50.820;4.548;2022-12-18T12:12:27;10.27;;;5.10;;
11582;SDS011;34299;50.820;4.548;2022-12-18T12:15:12;5.85;;;4.55;;
11582;SDS011;34299;50.820;4.548;2022-12-18T12:17:41;5.55;;;3.45;;
11582;SDS011;34299;50.820;4.548;2022-12-18T12:20:13;7.65;;;5.05;;
11582;SDS011;34299;50.820;4.548;2022-12-18T12:22:45;7.68;;;5.10;;
11582;SDS011;34299;50.820;4.548;2022-12-18T12:25:18;5.20;;;4.15;;
11582;SDS011;34299;50.820;4.548;2022-12-18T12:27:47;10.65;;;5.28;;
11582;SDS011;34299;50.820;4.548;2022-12-18T12:30:18;5.53;;;4.10;;
11582;SDS011;34299;50.820;4.548;2022-12-18T12:32:50;4.65;;;3.67;;
11582;SDS011;34299;50.820;4.548;2022-12-18T12:35:24;6.30;;;4.43;;
11582;SDS011;34299;50.820;4.548;2022-12-18T12:37:54;6.70;;;5.03;;
11582;SDS011;34299;50.820;4.548;2022-12-18T12:40:26;7.13;;;4.65;;
11582;SDS011;34299;50.820;4.548;2022-12-18T12:42:54;7.05;;;4.60;;
11582;SDS011;34299;50.820;4.548;2022-12-18T12:45:41;11.57;;;6.28;;
11582;SDS011;34299;50.820;4.548;2022-12-18T12:48:11;10.85;;;5.28;;
11582;SDS011;34299;50.820;4.548;2022-12-18T12:50:42;7.88;;;4.95;;
11582;SDS011;34299;50.820;4.548;2022-12-18T12:53:21;12.50;;;5.32;;
11582;SDS011;34299;50.820;4.548;2022-12-18T12:55:50;8.43;;;5.00;;
11582;SDS011;34299;50.820;4.548;2022-12-18T12:58:19;10.90;;;5.68;;
11582;SDS011;34299;50.820;4.548;2022-12-18T13:00:55;6.43;;;4.22;;
11582;SDS011;34299;50.820;4.548;2022-12-18T13:03:26;7.65;;;4.18;;
11582;SDS011;34299;50.820;4.548;2022-12-18T13:05:54;9.52;;;6.07;;
11582;SDS011;34299;50.820;4.548;2022-12-18T13:08:23;7.75;;;5.13;;
11582;SDS011;34299;50.820;4.548;2022-12-18T13:10:52;9.88;;;5.32;;
11582;SDS011;34299;50.820;4.548;2022-12-18T13:13:48;6.63;;;3.75;;
11582;SDS011;34299;50.820;4.548;2022-12-18T13:16:15;7.05;;;4.38;;
11582;SDS011;34299;50.820;4.548;2022-12-18T13:18:48;7.25;;;5.22;;
11582;SDS011;34299;50.820;4.548;2022-12-18T13:21:18;5.10;;;3.38;;
11582;SDS011;34299;50.820;4.548;2022-12-18T13:23:48;5.15;;;3.05;;
11582;SDS011;34299;50.820;4.548;2022-12-18T13:26:30;8.90;;;5.60;;
11582;SDS011;34299;50.820;4.548;2022-12-18T13:29:00;3.95;;;3.30;;
11582;SDS011;34299;50.820;4.548;2022-12-18T13:34:30;4.75;;;3.47;;
11582;SDS011;34299;50.820;4.548;2022-12-18T13:39:39;2.80;;;2.60;;
11582;SDS011;34299;50.820;4.548;2022-12-18T13:48:15;4.25;;;3.85;;
11582;SDS011;34299;50.820;4.548;2022-12-18T13:50:43;7.00;;;4.20;;
11582;SDS011;34299;50.820;4.548;2022-12-18T13:53:15;8.02;;;4.82;;
11582;SDS011;34299;50.820;4.548;2022-12-18T13:55:45;8.45;;;3.97;;
11582;SDS011;34299;50.820;4.548;2022-12-18T13:58:12;12.65;;;6.15;;
11582;SDS011;34299;50.820;4.548;2022-12-18T14:00:41;12.68;;;7.03;;
11582;SDS011;34299;50.820;4.548;2022-12-18T14:03:16;5.53;;;4.20;;
11582;SDS011;34299;50.820;4.548;2022-12-18T14:05:44;8.20;;;5.57;;
11582;SDS011;34299;50.820;4.548;2022-12-18T14:08:12;10.23;;;5.05;;
11582;SDS011;34299;50.820;4.548;2022-12-18T14:10:40;6.53;;;4.70;;
11582;SDS011;34299;50.820;4.548;2022-12-18T14:13:08;9.45;;;3.47;;
11582;SDS011;34299;50.820;4.548;2022-12-18T14:15:36;8.52;;;5.07;;
11582;SDS011;34299;50.820;4.548;2022-12-18T14:18:12;7.30;;;4.22;;
11582;SDS011;34299;50.820;4.548;2022-12-18T14:20:44;7.78;;;4.93;;
11582;SDS011;34299;50.820;4.548;2022-12-18T14:23:24;5.25;;;3.20;;
11582;SDS011;34299;50.820;4.548;2022-12-18T14:25:52;7.85;;;4.53;;
11582;SDS011;34299;50.820;4.548;2022-12-18T14:28:19;4.70;;;3.17;;
11582;SDS011;34299;50.820;4.548;2022-12-18T14:30:47;9.82;;;4.60;;
11582;SDS011;34299;50.820;4.548;2022-12-18T14:33:16;12.75;;;5.88;;
11582;SDS011;34299;50.820;4.548;2022-12-18T14:35:51;8.43;;;4.43;;
11582;SDS011;34299;50.820;4.548;2022-12-18T14:38:20;9.32;;;4.82;;
11582;SDS011;34299;50.820;4.548;2022-12-18T14:40:51;8.13;;;4.75;;
11582;SDS011;34299;50.820;4.548;2022-12-18T14:43:18;7.80;;;5.50;;
11582;SDS011;34299;50.820;4.548;2022-12-18T14:45:46;10.02;;;5.95;;
11582;SDS011;34299;50.820;4.548;2022-12-18T14:48:15;7.53;;;4.30;;
11582;SDS011;34299;50.820;4.548;2022-12-18T14:50:44;6.43;;;5.20;;
11582;SDS011;34299;50.820;4.548;2022-12-18T14:53:21;7.47;;;3.70;;
11582;SDS011;34299;50.820;4.548;2022-12-18T14:55:49;10.27;;;4.60;;
11582;SDS011;34299;50.820;4.548;2022-12-18T14:58:17;9.95;;;4.72;;
11582;SDS011;34299;50.820;4.548;2022-12-18T15:00:44;6.25;;;3.88;;
11582;SDS011;34299;50.820;4.548;2022-12-18T15:03:12;6.47;;;5.32;;